Time;durP1;ratioP1;P1;durP2;ratioP2;P2;SDS_P1;SDS_P2;PMS_P1;PMS_P2;Temp;Humidity;BMP_temperature;BMP_pressure;BME280_temperature;BME280_humidity;BME280_pressure;Samples;Min_cycle;Max_cycle;Signal;HPM_P1;HPM_P2
2023/03/23 00:00:43;;;;;;;3.95;2.92;;;11.50;63.70;;;;;;4981367;28;20502;-63
2023/03/23 00:03:09;;;;;;;4.68;3.33;;;11.50;63.80;;;;;;4983959;28;20034;-63
2023/03/23 00:05:36;;;;;;;6.95;2.60;;;11.50;63.90;;;;;;4978411;28;20038;-63
2023/03/23 00:08:03;;;;;;;5.35;3.47;;;11.50;64.00;;;;;;4982930;28;20134;-63
2023/03/23 00:10:32;;;;;;;5.00;3.40;;;11.60;63.80;;;;;;4985929;28;20030;-62
2023/03/23 00:13:02;;;;;;;5.18;3.28;;;11.60;63.80;;;;;;4983948;28;20038;-62
2023/03/23 00:15:33;;;;;;;4.40;3.17;;;11.60;63.70;;;;;;4984212;28;20038;-63
2023/03/23 00:18:02;;;;;;;3.80;3.13;;;11.60;63.60;;;;;;4983914;28;20065;-62
2023/03/23 00:20:39;;;;;;;5.13;3.10;;;11.60;63.60;;;;;;4983644;28;20561;-61
2023/03/23 00:23:06;;;;;;;6.03;3.55;;;11.60;63.70;;;;;;4985454;28;20145;-62
2023/03/23 00:25:32;;;;;;;6.03;3.40;;;11.60;63.60;;;;;;4986500;28;20062;-63
2023/03/23 00:27:58;;;;;;;5.15;4.03;;;11.60;63.80;;;;;;4983341;28;20038;-61
2023/03/23 00:30:24;;;;;;;6.72;4.10;;;11.60;63.90;;;;;;4980045;28;20053;-61
2023/03/23 00:32:50;;;;;;;6.05;3.78;;;11.60;64.10;;;;;;4979309;28;20041;-62
2023/03/23 00:35:17;;;;;;;5.57;3.80;;;11.60;64.00;;;;;;4979337;28;20038;-62
2023/03/23 00:37:43;;;;;;;5.90;3.92;;;11.60;64.10;;;;;;4980021;28;20033;-63
2023/03/23 00:40:10;;;;;;;5.28;3.80;;;11.70;64.20;;;;;;4981429;28;20277;-61
2023/03/23 00:42:36;;;;;;;6.95;3.92;;;11.70;64.10;;;;;;4980655;28;20158;-63
2023/03/23 00:45:04;;;;;;;5.15;4.13;;;11.70;64.10;;;;;;4983373;28;20113;-62
2023/03/23 00:47:30;;;;;;;5.60;4.20;;;11.70;63.80;;;;;;4983247;28;20057;-63
2023/03/23 00:49:56;;;;;;;8.77;4.22;;;11.80;63.80;;;;;;4980857;28;20026;-63
2023/03/23 00:52:21;;;;;;;6.38;4.50;;;11.80;63.50;;;;;;4982586;28;21934;-63
2023/03/23 00:54:47;;;;;;;7.93;4.53;;;11.70;63.40;;;;;;4983497;28;23692;-63
2023/03/23 00:57:13;;;;;;;7.03;4.32;;;11.80;63.40;;;;;;4982424;28;20049;-61
2023/03/23 00:59:38;;;;;;;8.52;4.10;;;11.80;63.70;;;;;;4982330;28;20042;-62
2023/03/23 01:02:04;;;;;;;5.95;4.18;;;11.80;63.20;;;;;;4984219;28;20121;-60
2023/03/23 01:04:31;;;;;;;5.85;4.40;;;11.70;63.10;;;;;;4984732;28;20401;-63
2023/03/23 01:06:57;;;;;;;6.70;4.68;;;11.80;63.20;;;;;;4983945;28;20034;-63
2023/03/23 01:09:23;;;;;;;6.13;4.40;;;11.80;63.30;;;;;;4981340;28;20502;-62
2023/03/23 01:11:50;;;;;;;4.40;3.90;;;11.80;63.40;;;;;;4980482;28;20275;-63
2023/03/23 01:14:18;;;;;;;6.70;4.40;;;11.80;63.40;;;;;;4987218;28;20093;-62
2023/03/23 01:16:44;;;;;;;5.15;4.13;;;11.80;63.40;;;;;;4989509;28;20038;-62
2023/03/23 01:19:10;;;;;;;7.53;4.53;;;11.80;63.40;;;;;;4989197;28;20089;-62
2023/03/23 01:21:36;;;;;;;7.38;4.30;;;11.80;63.60;;;;;;4989703;28;20038;-63
2023/03/23 01:24:02;;;;;;;7.75;4.28;;;11.80;63.70;;;;;;4985509;28;20065;-63
2023/03/23 01:26:28;;;;;;;6.18;4.45;;;11.80;63.80;;;;;;4983938;28;20069;-62
2023/03/23 01:28:54;;;;;;;4.75;4.15;;;11.80;63.80;;;;;;4982973;28;20059;-63
2023/03/23 01:31:22;;;;;;;5.97;4.03;;;11.80;63.80;;;;;;4985217;28;20059;-63
2023/03/23 01:33:52;;;;;;;7.50;4.00;;;11.90;64.00;;;;;;4983209;28;20038;-63
2023/03/23 01:36:21;;;;;;;6.53;4.15;;;11.90;63.90;;;;;;4984018;28;20164;-62
2023/03/23 01:38:48;;;;;;;5.47;3.95;;;11.90;63.80;;;;;;4981721;28;20114;-64
2023/03/23 01:41:15;;;;;;;5.78;4.20;;;11.90;63.70;;;;;;4985081;28;20042;-59
2023/03/23 01:44:01;;;;;;;9.18;4.30;;;11.90;64.10;;;;;;4984222;28;20034;-61
2023/03/23 01:46:28;;;;;;;4.55;3.85;;;11.90;64.80;;;;;;4981653;28;20356;-62
2023/03/23 01:48:57;;;;;;;5.68;4.13;;;11.90;64.10;;;;;;4982903;28;20350;-61
2023/03/23 01:51:24;;;;;;;5.95;4.07;;;11.90;64.20;;;;;;4984264;28;20121;-62
2023/03/23 01:53:59;;;;;;;5.38;4.47;;;11.90;64.30;;;;;;4985096;28;20081;-63
2023/03/23 01:56:32;;;;;;;5.57;4.13;;;11.90;64.60;;;;;;4984957;28;21050;-62
2023/03/23 01:58:58;;;;;;;4.72;3.97;;;11.90;64.40;;;;;;4983631;28;20333;-63
2023/03/23 02:01:27;;;;;;;4.65;4.00;;;11.90;64.50;;;;;;4982574;28;20113;-63
2023/03/23 02:03:55;;;;;;;5.28;4.00;;;11.90;64.50;;;;;;4982476;28;20445;-63
2023/03/23 02:06:21;;;;;;;5.30;3.90;;;12.00;64.50;;;;;;4981875;28;20035;-63
2023/03/23 02:08:50;;;;;;;5.72;4.07;;;12.00;64.30;;;;;;4983567;28;20746;-62
2023/03/23 02:11:18;;;;;;;4.75;4.03;;;12.10;64.50;;;;;;4983493;28;20057;-63
2023/03/23 02:13:45;;;;;;;4.90;4.05;;;12.00;64.40;;;;;;4981491;28;20030;-62
2023/03/23 02:16:21;;;;;;;6.28;4.10;;;12.00;64.60;;;;;;4982012;28;20041;-63
2023/03/23 02:19:20;;;;;;;6.03;4.28;;;12.10;64.80;;;;;;4984584;28;20389;-62
2023/03/23 02:22:26;;;;;;;5.53;3.97;;;12.10;65.30;;;;;;4978130;28;20038;-64
2023/03/23 02:24:57;;;;;;;5.07;3.90;;;12.10;66.00;;;;;;4962360;28;20066;-63
2023/03/23 02:27:41;;;;;;;6.10;4.10;;;12.20;64.50;;;;;;4983492;28;20038;-62
2023/03/23 02:30:19;;;;;;;5.30;3.77;;;12.10;65.00;;;;;;4982571;28;20042;-62
2023/03/23 02:33:12;;;;;;;5.85;4.20;;;12.10;65.70;;;;;;4981343;28;20113;-63
2023/03/23 02:35:54;;;;;;;4.65;3.90;;;12.10;64.60;;;;;;4982179;28;20047;-63
2023/03/23 02:38:31;;;;;;;4.68;3.88;;;12.10;64.70;;;;;;4982736;28;20552;-62
2023/03/23 02:41:00;;;;;;;7.28;4.00;;;12.20;64.60;;;;;;4980611;28;20045;-62
2023/03/23 02:43:30;;;;;;;4.93;4.05;;;12.20;64.50;;;;;;4981994;28;20042;-61
2023/03/23 02:45:57;;;;;;;9.13;4.35;;;12.20;64.50;;;;;;4982032;28;20042;-62
2023/03/23 02:48:28;;;;;;;5.35;4.30;;;12.20;64.40;;;;;;4982269;28;20038;-62
2023/03/23 02:50:54;;;;;;;6.10;4.35;;;12.30;64.50;;;;;;4982443;28;20038;-61
2023/03/23 02:53:24;;;;;;;5.75;4.15;;;12.30;64.40;;;;;;4985492;28;20045;-62
2023/03/23 02:55:53;;;;;;;6.38;4.40;;;12.30;64.50;;;;;;4983776;28;20529;-63
2023/03/23 02:58:20;;;;;;;5.75;4.18;;;12.30;64.50;;;;;;4983330;28;20046;-62
2023/03/23 03:00:49;;;;;;;6.05;4.05;;;12.30;64.50;;;;;;4978745;28;20046;-59
2023/03/23 03:03:19;;;;;;;5.80;4.15;;;12.30;64.50;;;;;;4982806;28;20038;-62
2023/03/23 03:06:03;;;;;;;5.63;4.00;;;12.30;64.50;;;;;;4983563;28;20031;-61
2023/03/23 03:08:45;;;;;;;8.23;3.67;;;12.40;64.80;;;;;;4984904;28;20121;-61
2023/03/23 03:11:17;;;;;;;6.90;4.10;;;12.40;64.50;;;;;;4982834;28;20034;-61
2023/03/23 03:13:59;;;;;;;6.13;3.58;;;12.40;64.60;;;;;;4984796;28;20034;-62
2023/03/23 03:16:31;;;;;;;7.15;3.70;;;12.50;64.90;;;;;;4983705;28;20040;-62
2023/03/23 03:19:02;;;;;;;4.90;3.45;;;12.50;64.60;;;;;;4982500;28;20112;-62
2023/03/23 03:21:33;;;;;;;5.18;3.50;;;12.60;64.90;;;;;;4982738;28;20042;-62
2023/03/23 03:24:02;;;;;;;4.00;3.35;;;12.70;64.80;;;;;;4981216;28;20799;-62
2023/03/23 03:26:32;;;;;;;6.90;3.50;;;12.70;64.50;;;;;;4981036;28;20042;-62
2023/03/23 03:28:58;;;;;;;6.93;3.88;;;12.70;64.60;;;;;;4979784;28;20038;-63
2023/03/23 03:31:32;;;;;;;5.55;4.05;;;12.70;64.50;;;;;;4982379;28;20049;-63
2023/03/23 03:34:00;;;;;;;4.55;3.58;;;12.80;64.60;;;;;;4979104;28;20045;-63
2023/03/23 03:36:34;;;;;;;5.53;3.47;;;12.80;64.50;;;;;;4981709;28;20453;-63
2023/03/23 03:39:05;;;;;;;4.53;3.45;;;12.80;64.60;;;;;;4978529;28;20030;-63
2023/03/23 03:41:31;;;;;;;4.60;3.60;;;12.80;64.70;;;;;;4982210;28;20082;-62
2023/03/23 03:43:57;;;;;;;5.05;3.80;;;12.80;64.60;;;;;;4979030;28;20117;-61
2023/03/23 03:46:26;;;;;;;3.60;3.30;;;12.80;64.50;;;;;;4981573;28;20048;-62
2023/03/23 03:48:52;;;;;;;3.88;3.42;;;12.80;64.60;;;;;;4981726;28;20053;-63
2023/03/23 03:51:18;;;;;;;4.25;3.50;;;12.80;64.60;;;;;;4981751;28;20038;-63
2023/03/23 03:53:43;;;;;;;5.53;3.75;;;12.80;64.80;;;;;;4981352;28;20133;-63
2023/03/23 03:56:09;;;;;;;8.00;3.78;;;12.90;64.90;;;;;;4981312;28;20061;-63
2023/03/23 03:58:35;;;;;;;5.80;3.85;;;12.90;64.80;;;;;;4981590;28;20549;-62
2023/03/23 04:01:03;;;;;;;6.00;4.00;;;12.90;64.80;;;;;;4982543;28;20112;-62
2023/03/23 04:03:28;;;;;;;4.18;3.78;;;12.80;64.80;;;;;;4983245;28;20123;-63
2023/03/23 04:05:55;;;;;;;4.80;3.75;;;12.80;64.60;;;;;;4983290;28;20170;-63
2023/03/23 04:08:22;;;;;;;4.82;3.15;;;12.80;64.60;;;;;;4983871;28;20038;-62
2023/03/23 04:10:48;;;;;;;4.85;3.35;;;12.80;64.70;;;;;;4982803;28;20047;-63
2023/03/23 04:13:14;;;;;;;3.97;3.33;;;12.80;64.70;;;;;;4980604;28;20133;-62
2023/03/23 04:15:40;;;;;;;5.68;3.33;;;12.80;64.80;;;;;;4979948;28;20120;-61
2023/03/23 04:18:05;;;;;;;3.38;3.05;;;12.80;64.80;;;;;;4982841;28;20049;-58
2023/03/23 04:20:31;;;;;;;4.13;3.15;;;12.80;64.60;;;;;;4978152;28;20042;-61
2023/03/23 04:22:57;;;;;;;3.95;3.17;;;12.80;64.50;;;;;;4981818;28;20105;-60
2023/03/23 04:25:23;;;;;;;3.70;3.28;;;12.80;64.60;;;;;;4979268;28;20117;-61
2023/03/23 04:27:53;;;;;;;3.15;2.83;;;12.90;64.50;;;;;;4981605;28;20038;-62
2023/03/23 04:30:24;;;;;;;4.80;3.40;;;12.90;64.50;;;;;;4982268;28;20039;-61
2023/03/23 04:32:51;;;;;;;3.33;2.65;;;12.90;64.60;;;;;;4979987;28;20050;-62
2023/03/23 04:35:19;;;;;;;3.60;2.80;;;12.90;64.30;;;;;;4980767;28;20035;-62
2023/03/23 04:37:45;;;;;;;3.63;2.72;;;13.00;64.20;;;;;;4979868;28;20954;-63
2023/03/23 04:40:14;;;;;;;3.50;2.80;;;13.00;64.00;;;;;;4979320;28;20280;-61
2023/03/23 04:42:41;;;;;;;2.35;2.15;;;13.00;63.80;;;;;;4979834;28;20038;-62
2023/03/23 04:45:08;;;;;;;5.03;2.70;;;13.10;63.80;;;;;;4982090;28;20035;-61
2023/03/23 04:47:39;;;;;;;2.97;2.40;;;13.10;63.60;;;;;;4984908;28;20034;-63
2023/03/23 04:50:08;;;;;;;4.40;2.45;;;13.20;63.50;;;;;;4983618;28;20042;-62
2023/03/23 04:52:33;;;;;;;3.05;2.60;;;13.20;63.30;;;;;;4983478;28;20030;-62
2023/03/23 04:54:59;;;;;;;2.80;2.50;;;13.30;63.30;;;;;;4985225;28;20117;-62
2023/03/23 04:57:27;;;;;;;3.42;2.60;;;13.30;63.10;;;;;;4982053;28;20124;-63
2023/03/23 04:59:53;;;;;;;3.67;2.40;;;13.40;63.00;;;;;;4983399;28;20029;-62
2023/03/23 05:02:19;;;;;;;2.60;2.40;;;13.40;62.80;;;;;;4986198;28;20034;-62
2023/03/23 05:04:44;;;;;;;3.30;2.50;;;13.50;62.70;;;;;;4982908;28;20053;-63
2023/03/23 05:07:11;;;;;;;4.65;2.42;;;13.50;62.60;;;;;;4984311;28;20043;-63
2023/03/23 05:09:36;;;;;;;3.45;2.80;;;13.60;62.50;;;;;;4984045;28;20691;-63
2023/03/23 05:12:07;;;;;;;3.25;2.30;;;13.60;62.40;;;;;;4985760;28;20031;-62
2023/03/23 05:14:32;;;;;;;3.17;2.45;;;13.60;62.10;;;;;;4988399;28;20117;-62
2023/03/23 05:16:58;;;;;;;4.38;2.40;;;13.70;62.10;;;;;;4986362;28;20120;-61
2023/03/23 05:19:24;;;;;;;14.63;8.38;;;13.70;62.00;;;;;;4988440;28;20026;-60
2023/03/23 05:21:49;;;;;;;8.80;5.70;;;13.70;61.90;;;;;;4987057;28;20039;-63
2023/03/23 05:24:15;;;;;;;4.57;3.85;;;13.80;61.90;;;;;;4996282;28;20054;-61
2023/03/23 05:26:40;;;;;;;5.07;3.17;;;13.80;61.70;;;;;;4983533;28;20035;-62
2023/03/23 05:29:06;;;;;;;3.20;2.63;;;13.80;61.60;;;;;;4980153;28;20037;-62
2023/03/23 05:31:32;;;;;;;2.72;2.45;;;13.80;61.50;;;;;;4971102;28;20193;-62
2023/03/23 05:33:58;;;;;;;3.33;2.67;;;13.90;61.30;;;;;;4981296;28;20101;-63
2023/03/23 05:36:24;;;;;;;6.15;2.70;;;13.90;61.20;;;;;;4980068;28;20389;-62
2023/03/23 05:38:53;;;;;;;6.00;2.72;;;13.90;61.10;;;;;;4979036;28;20030;-61
2023/03/23 05:41:18;;;;;;;3.65;2.25;;;13.90;61.00;;;;;;4985304;28;20042;-61
2023/03/23 05:43:44;;;;;;;4.82;2.30;;;13.90;60.80;;;;;;4984276;28;20753;-61
2023/03/23 05:46:09;;;;;;;8.88;2.53;;;13.90;60.80;;;;;;4978636;28;20038;-60
2023/03/23 05:48:36;;;;;;;7.50;2.65;;;13.90;60.60;;;;;;4979050;28;20104;-62
2023/03/23 05:51:02;;;;;;;10.15;2.85;;;14.00;60.60;;;;;;4983742;28;20038;-63
2023/03/23 05:53:29;;;;;;;5.70;3.20;;;14.00;60.50;;;;;;4983698;28;20077;-63
2023/03/23 05:55:59;;;;;;;7.80;3.40;;;14.00;60.50;;;;;;4984245;28;20138;-60
2023/03/23 05:58:24;;;;;;;7.78;2.83;;;14.00;60.30;;;;;;4984746;28;20045;-61
2023/03/23 06:00:50;;;;;;;6.75;2.95;;;14.10;60.30;;;;;;4984847;28;20030;-61
2023/03/23 06:03:15;;;;;;;4.57;2.40;;;14.10;60.10;;;;;;4985358;28;20035;-61
2023/03/23 06:05:44;;;;;;;4.90;2.47;;;14.10;60.00;;;;;;4983898;28;20038;-61
2023/03/23 06:08:11;;;;;;;3.83;2.20;;;14.10;59.90;;;;;;4984598;28;20080;-62
2023/03/23 06:10:37;;;;;;;8.38;2.20;;;14.10;59.80;;;;;;4984318;28;20039;-61
2023/03/23 06:13:03;;;;;;;4.60;2.42;;;14.10;59.80;;;;;;4981854;28;20040;-61
2023/03/23 06:15:31;;;;;;;4.38;2.30;;;14.10;59.70;;;;;;4980653;28;20030;-63
2023/03/23 06:18:05;;;;;;;2.60;2.40;;;14.20;59.70;;;;;;4983193;28;20062;-60
2023/03/23 06:20:31;;;;;;;5.40;2.60;;;14.20;59.70;;;;;;4984147;28;20121;-62
2023/03/23 06:22:56;;;;;;;3.70;2.60;;;14.20;59.70;;;;;;4980490;28;20117;-62
2023/03/23 06:25:23;;;;;;;2.47;2.28;;;14.20;59.50;;;;;;4982732;28;20117;-62
2023/03/23 06:27:49;;;;;;;2.78;1.90;;;14.20;59.40;;;;;;4984670;28;20101;-62
2023/03/23 06:30:15;;;;;;;5.10;2.20;;;14.20;59.30;;;;;;4984056;28;20073;-62
2023/03/23 06:32:41;;;;;;;4.65;2.53;;;14.20;59.30;;;;;;4985827;28;20035;-62
2023/03/23 06:35:09;;;;;;;3.75;2.38;;;14.20;59.20;;;;;;4983592;28;20505;-61
2023/03/23 06:37:36;;;;;;;5.18;2.38;;;14.20;59.20;;;;;;4983855;28;20142;-63
2023/03/23 06:40:03;;;;;;;5.88;2.25;;;14.30;59.20;;;;;;4983277;28;20089;-62
2023/03/23 06:42:29;;;;;;;2.47;2.13;;;14.30;59.20;;;;;;4982410;28;20641;-62
2023/03/23 06:44:56;;;;;;;3.67;2.05;;;14.30;59.20;;;;;;4981360;28;20041;-63
2023/03/23 06:47:26;;;;;;;6.53;2.25;;;14.30;59.20;;;;;;4978265;28;20298;-62
2023/03/23 06:49:52;;;;;;;8.98;2.50;;;14.30;59.10;;;;;;4978203;28;20073;-61
2023/03/23 06:52:17;;;;;;;2.38;2.10;;;14.40;59.10;;;;;;4980905;28;20043;-60
2023/03/23 06:54:43;;;;;;;3.38;2.28;;;14.40;59.10;;;;;;4980887;28;20486;-60
2023/03/23 06:57:09;;;;;;;4.88;2.33;;;14.40;59.10;;;;;;4983143;28;20031;-62
2023/03/23 06:59:35;;;;;;;5.28;2.47;;;14.40;59.00;;;;;;4979880;28;20173;-63
2023/03/23 07:02:01;;;;;;;2.50;2.10;;;14.50;59.10;;;;;;4981727;28;20034;-63
2023/03/23 07:04:27;;;;;;;5.63;2.05;;;14.50;59.00;;;;;;4981035;28;20576;-63
2023/03/23 07:06:52;;;;;;;3.40;2.22;;;14.50;59.00;;;;;;4980825;28;20046;-60
2023/03/23 07:09:18;;;;;;;3.75;2.13;;;14.60;59.10;;;;;;4980252;28;20034;-63
2023/03/23 07:11:43;;;;;;;4.50;2.30;;;14.60;59.00;;;;;;4979453;28;22019;-61
2023/03/23 07:14:10;;;;;;;3.10;1.88;;;14.70;59.00;;;;;;4979627;28;20034;-62
2023/03/23 07:16:35;;;;;;;2.85;2.00;;;14.70;58.90;;;;;;4979839;28;20145;-63
2023/03/23 07:19:01;;;;;;;7.57;2.00;;;14.70;58.90;;;;;;4981057;28;20034;-61
2023/03/23 07:21:26;;;;;;;3.72;1.58;;;14.80;58.90;;;;;;4978601;28;20501;-63
2023/03/23 07:23:52;;;;;;;7.07;1.70;;;14.80;58.90;;;;;;4981435;28;20505;-61
2023/03/23 07:26:18;;;;;;;3.03;1.90;;;14.80;58.80;;;;;;4980972;28;20050;-62
2023/03/23 07:28:45;;;;;;;4.20;2.00;;;14.90;58.80;;;;;;4980549;28;20039;-61
2023/03/23 07:31:11;;;;;;;2.15;1.67;;;14.90;58.70;;;;;;4974274;28;20034;-60
2023/03/23 07:33:37;;;;;;;4.63;1.83;;;15.00;58.70;;;;;;4979110;28;20041;-60
2023/03/23 07:36:03;;;;;;;1.92;1.73;;;15.00;58.70;;;;;;4981865;28;20059;-61
2023/03/23 07:38:29;;;;;;;2.42;1.73;;;15.00;58.60;;;;;;4981008;28;20118;-61
2023/03/23 07:40:56;;;;;;;4.90;1.88;;;15.10;58.70;;;;;;4981315;28;20502;-60
2023/03/23 07:43:22;;;;;;;4.07;1.83;;;15.10;58.50;;;;;;4978273;28;20525;-63
2023/03/23 07:45:48;;;;;;;1.90;1.70;;;15.20;58.50;;;;;;4977797;28;20035;-63
2023/03/23 07:48:13;;;;;;;2.20;1.70;;;15.30;58.50;;;;;;4981651;28;20045;-63
2023/03/23 07:50:40;;;;;;;3.53;1.85;;;15.30;58.50;;;;;;4978133;28;20197;-63
2023/03/23 07:53:05;;;;;;;4.45;1.80;;;15.40;58.50;;;;;;4979837;28;20034;-63
2023/03/23 07:55:31;;;;;;;6.18;2.00;;;15.40;58.40;;;;;;4979936;28;20030;-63
2023/03/23 07:57:57;;;;;;;4.75;2.15;;;15.50;58.10;;;;;;4981997;28;20068;-62
2023/03/23 08:00:24;;;;;;;3.22;2.05;;;15.60;58.10;;;;;;4979884;28;20117;-60
2023/03/23 08:02:59;;;;;;;4.03;1.95;;;15.60;58.10;;;;;;4981671;28;20100;-62
2023/03/23 08:05:26;;;;;;;2.47;1.90;;;15.70;58.30;;;;;;4980131;28;20061;-61
2023/03/23 08:07:54;;;;;;;3.40;3.10;;;15.70;58.40;;;;;;4980376;28;20113;-62
2023/03/23 08:10:21;;;;;;;7.68;4.82;;;15.80;58.40;;;;;;4978073;28;20457;-61
2023/03/23 08:12:54;;;;;;;3.17;2.50;;;15.80;58.40;;;;;;4976628;28;20555;-61
2023/03/23 08:15:21;;;;;;;2.83;1.90;;;15.90;58.30;;;;;;4982149;28;20130;-62
2023/03/23 08:17:48;;;;;;;3.72;2.40;;;15.90;58.30;;;;;;4981715;28;20383;-63
2023/03/23 08:20:14;;;;;;;4.70;3.35;;;16.00;58.20;;;;;;4980542;28;20447;-63
2023/03/23 08:22:44;;;;;;;5.13;2.47;;;16.00;58.30;;;;;;4980735;28;20065;-61
2023/03/23 08:25:12;;;;;;;4.78;2.60;;;16.00;58.30;;;;;;4978491;28;20035;-62
2023/03/23 08:27:43;;;;;;;3.88;1.80;;;16.10;58.60;;;;;;4978909;28;20030;-62
2023/03/23 08:30:11;;;;;;;2.55;1.63;;;16.10;58.50;;;;;;4981767;28;20277;-63
2023/03/23 08:32:37;;;;;;;3.75;1.90;;;16.20;58.30;;;;;;4981635;28;20034;-62
2023/03/23 08:35:03;;;;;;;3.42;1.50;;;16.20;58.30;;;;;;4983833;28;20572;-63
2023/03/23 08:37:30;;;;;;;2.05;1.38;;;16.30;58.00;;;;;;4982678;28;20681;-63
2023/03/23 08:39:56;;;;;;;2.63;1.30;;;16.30;57.60;;;;;;4982727;28;20031;-63
2023/03/23 08:42:24;;;;;;;3.63;1.50;;;16.40;57.30;;;;;;4980795;28;20030;-62
2023/03/23 08:44:51;;;;;;;2.83;1.27;;;16.50;57.00;;;;;;4979474;28;20038;-63
2023/03/23 08:47:17;;;;;;;3.80;1.70;;;16.50;57.00;;;;;;4980802;28;20042;-63
2023/03/23 08:49:44;;;;;;;2.97;1.30;;;16.60;56.90;;;;;;4975292;28;20034;-63
2023/03/23 08:52:09;;;;;;;2.55;1.30;;;16.70;56.80;;;;;;4977680;28;20507;-63
2023/03/23 08:54:35;;;;;;;13.75;1.67;;;16.80;56.30;;;;;;4979993;28;20119;-63
2023/03/23 08:57:02;;;;;;;3.30;1.40;;;16.80;56.30;;;;;;4981179;28;20064;-61
2023/03/23 08:59:28;;;;;;;1.92;1.20;;;16.80;56.00;;;;;;4979916;28;20038;-63
2023/03/23 09:01:54;;;;;;;2.40;1.00;;;16.90;56.10;;;;;;4973178;28;20718;-61
2023/03/23 09:04:20;;;;;;;3.30;1.55;;;16.90;56.00;;;;;;4976604;28;20513;-62
2023/03/23 09:06:46;;;;;;;7.18;1.30;;;17.00;55.60;;;;;;4982468;28;20057;-61
2023/03/23 09:09:12;;;;;;;2.83;1.08;;;17.00;55.50;;;;;;4979885;28;20042;-63
2023/03/23 09:11:38;;;;;;;3.60;1.40;;;17.10;55.50;;;;;;4977843;28;20041;-62
2023/03/23 09:14:06;;;;;;;1.45;1.17;;;17.10;55.20;;;;;;4979905;28;20035;-62
2023/03/23 09:16:32;;;;;;;2.40;1.23;;;17.10;55.30;;;;;;4979786;28;20041;-61
2023/03/23 09:18:58;;;;;;;4.20;1.20;;;17.10;55.40;;;;;;4978696;28;20573;-62
2023/03/23 09:21:25;;;;;;;2.65;1.50;;;17.20;55.60;;;;;;4979086;28;20045;-62
2023/03/23 09:23:52;;;;;;;1.92;1.40;;;17.20;55.30;;;;;;4980663;28;20070;-62
2023/03/23 09:26:18;;;;;;;4.55;2.00;;;17.30;55.30;;;;;;4979730;28;20039;-63
2023/03/23 09:28:44;;;;;;;4.18;1.98;;;17.30;55.40;;;;;;4980945;28;20046;-62
2023/03/23 09:31:10;;;;;;;2.08;1.35;;;17.40;55.30;;;;;;4979668;28;20132;-64
2023/03/23 09:33:37;;;;;;;2.85;1.40;;;17.40;55.00;;;;;;4986349;28;20405;-62
2023/03/23 09:36:04;;;;;;;1.85;1.60;;;17.40;55.00;;;;;;4985717;28;20031;-62
2023/03/23 09:38:33;;;;;;;2.22;1.60;;;17.50;54.70;;;;;;4982433;28;20105;-61
2023/03/23 09:41:15;;;;;;;1.90;1.38;;;17.50;54.60;;;;;;4984835;28;20069;-61
2023/03/23 09:43:50;;;;;;;2.25;1.20;;;17.50;54.20;;;;;;4981321;28;20117;-63
2023/03/23 09:46:53;;;;;;;2.92;1.35;;;17.60;54.60;;;;;;4984064;28;20035;-62
2023/03/23 09:49:37;;;;;;;1.88;1.65;;;17.60;54.50;;;;;;4983344;28;20398;-62
2023/03/23 09:52:10;;;;;;;1.67;1.48;;;17.60;55.00;;;;;;4982452;28;20031;-63
2023/03/23 09:54:51;;;;;;;1.40;1.30;;;17.60;54.40;;;;;;4981499;28;20030;-63
2023/03/23 09:57:49;;;;;;;1.60;1.50;;;17.70;54.60;;;;;;4983880;28;20101;-63
2023/03/23 10:00:18;;;;;;;1.55;1.27;;;17.70;54.20;;;;;;4981651;28;20043;-62
2023/03/23 10:03:17;;;;;;;1.38;1.25;;;17.80;54.30;;;;;;4982251;28;20049;-63
2023/03/23 10:05:47;;;;;;;1.30;1.20;;;17.80;55.10;;;;;;4980086;28;20041;-61
2023/03/23 10:08:19;;;;;;;2.47;1.33;;;17.80;54.70;;;;;;4985647;28;20065;-63
2023/03/23 10:10:55;;;;;;;1.48;1.20;;;17.90;54.60;;;;;;4980400;28;20387;-63
2023/03/23 10:13:47;;;;;;;2.33;0.98;;;17.90;54.50;;;;;;4979383;28;20042;-59
2023/03/23 10:16:19;;;;;;;2.95;1.30;;;17.90;54.10;;;;;;4983367;28;20181;-62
2023/03/23 10:18:56;;;;;;;1.10;1.00;;;17.90;54.20;;;;;;4979508;28;20165;-63
2023/03/23 10:21:23;;;;;;;1.50;1.00;;;18.00;53.60;;;;;;4981161;28;20038;-61
2023/03/23 10:24:01;;;;;;;2.30;1.20;;;18.00;53.80;;;;;;4980477;28;20046;-60
2023/03/23 10:26:57;;;;;;;3.60;1.23;;;18.00;53.20;;;;;;4978740;28;20820;-63
2023/03/23 10:29:29;;;;;;;2.35;1.10;;;18.00;53.50;;;;;;4980477;28;20081;-62
2023/03/23 10:32:13;;;;;;;1.38;1.10;;;18.00;53.80;;;;;;4982681;28;20526;-63
2023/03/23 10:34:49;;;;;;;1.53;1.20;;;18.00;54.10;;;;;;4978192;28;20066;-63
2023/03/23 10:37:26;;;;;;;2.08;1.25;;;18.00;53.70;;;;;;4980182;28;20533;-63
2023/03/23 10:39:58;;;;;;;2.10;1.20;;;18.10;54.00;;;;;;4980522;28;20490;-62
2023/03/23 10:42:26;;;;;;;5.20;1.30;;;18.10;54.00;;;;;;4977720;28;20074;-60
2023/03/23 10:44:52;;;;;;;1.73;1.02;;;18.10;54.10;;;;;;4979522;28;20038;-63
2023/03/23 10:47:18;;;;;;;5.50;1.13;;;18.10;54.10;;;;;;4979349;28;20430;-62
2023/03/23 10:49:54;;;;;;;1.52;1.38;;;18.10;54.00;;;;;;4983503;28;20444;-63
2023/03/23 10:52:26;;;;;;;1.40;1.30;;;18.20;53.40;;;;;;4978476;28;20122;-62
2023/03/23 10:55:03;;;;;;;5.30;1.23;;;18.20;53.90;;;;;;4981676;28;20038;-63
2023/03/23 10:57:33;;;;;;;7.13;1.50;;;18.30;54.10;;;;;;4977664;28;20046;-61
2023/03/23 11:00:26;;;;;;;3.10;1.45;;;18.30;54.00;;;;;;4980616;28;20037;-63
2023/03/23 11:03:05;;;;;;;2.92;1.20;;;18.40;53.60;;;;;;4982853;28;20049;-60
2023/03/23 11:05:41;;;;;;;1.27;1.17;;;18.40;53.40;;;;;;4985070;28;20521;-62
2023/03/23 11:08:15;;;;;;;3.78;1.50;;;18.50;53.70;;;;;;4984580;28;20038;-62
2023/03/23 11:10:48;;;;;;;3.67;1.70;;;18.50;53.50;;;;;;4983427;28;20520;-61
2023/03/23 11:13:16;;;;;;;1.80;1.38;;;18.50;53.70;;;;;;4984917;28;20046;-61
2023/03/23 11:15:45;;;;;;;1.40;1.25;;;18.60;53.60;;;;;;4984352;28;20038;-62
2023/03/23 11:18:24;;;;;;;5.55;1.55;;;18.60;53.80;;;;;;4983913;28;20040;-63
2023/03/23 11:20:57;;;;;;;2.33;1.40;;;18.70;54.20;;;;;;4983574;28;20114;-60
2023/03/23 11:23:27;;;;;;;2.10;1.08;;;18.70;53.30;;;;;;4983597;28;20038;-61
2023/03/23 11:26:17;;;;;;;2.90;1.05;;;18.80;53.50;;;;;;4984842;28;20532;-60
2023/03/23 11:28:47;;;;;;;4.97;1.73;;;18.80;53.00;;;;;;4981545;28;20726;-61
2023/03/23 11:31:13;;;;;;;3.42;1.30;;;18.90;53.30;;;;;;4984169;28;20070;-62
2023/03/23 11:33:53;;;;;;;3.95;1.20;;;18.90;53.30;;;;;;4981883;28;20457;-63
2023/03/23 11:36:20;;;;;;;2.63;1.40;;;18.90;53.00;;;;;;4980663;28;20120;-63
2023/03/23 11:38:46;;;;;;;2.42;1.50;;;18.90;53.10;;;;;;4980924;28;20455;-62
2023/03/23 11:41:18;;;;;;;1.42;1.10;;;19.00;53.10;;;;;;4982579;28;20038;-62
2023/03/23 11:43:46;;;;;;;2.78;1.30;;;19.00;53.00;;;;;;4980447;28;20129;-61
2023/03/23 11:46:45;;;;;;;4.95;1.20;;;19.00;52.90;;;;;;4982929;28;20255;-62
2023/03/23 11:49:37;;;;;;;3.30;1.35;;;19.00;52.60;;;;;;4982862;28;20034;-63
2023/03/23 11:52:18;;;;;;;2.50;1.38;;;19.00;52.40;;;;;;4983282;28;20088;-62
2023/03/23 11:55:02;;;;;;;2.95;1.40;;;18.90;52.70;;;;;;4983963;28;20038;-60
2023/03/23 11:57:30;;;;;;;1.20;1.10;;;19.00;53.00;;;;;;4983132;28;20039;-62
2023/03/23 12:00:00;;;;;;;1.83;1.25;;;19.00;52.80;;;;;;4978643;28;20511;-60
2023/03/23 12:02:51;;;;;;;3.65;1.23;;;19.00;52.90;;;;;;4978386;28;20430;-62
2023/03/23 12:05:55;;;;;;;2.15;1.30;;;19.00;52.80;;;;;;4978261;28;20042;-64
2023/03/23 12:08:53;;;;;;;2.80;1.58;;;19.00;52.70;;;;;;4975363;28;20049;-62
2023/03/23 12:11:32;;;;;;;4.00;1.48;;;19.10;52.90;;;;;;4978970;28;20469;-63
2023/03/23 12:14:24;;;;;;;1.80;1.50;;;19.10;52.20;;;;;;4978973;28;20038;-63
2023/03/23 12:17:07;;;;;;;3.03;1.17;;;19.10;52.00;;;;;;4980486;28;20036;-63
2023/03/23 12:20:10;;;;;;;3.67;1.70;;;19.10;52.40;;;;;;4981031;28;20053;-62
2023/03/23 12:23:05;;;;;;;3.97;1.20;;;19.20;52.00;;;;;;4974940;28;20049;-63
2023/03/23 12:25:49;;;;;;;3.90;1.45;;;19.20;51.80;;;;;;4983721;28;20042;-63
2023/03/23 12:28:34;;;;;;;2.78;1.35;;;19.20;52.30;;;;;;4979403;28;20092;-61
2023/03/23 12:31:07;;;;;;;2.65;1.60;;;19.20;51.70;;;;;;4979940;28;20044;-63
2023/03/23 12:33:51;;;;;;;7.53;1.52;;;19.20;51.50;;;;;;4982837;28;20066;-60
2023/03/23 12:36:43;;;;;;;2.53;1.40;;;19.20;51.60;;;;;;4983579;28;20257;-63
2023/03/23 12:39:48;;;;;;;3.78;1.60;;;19.20;51.40;;;;;;4979627;28;20041;-62
2023/03/23 12:42:27;;;;;;;4.88;1.40;;;19.20;51.10;;;;;;4966029;28;20045;-65
2023/03/23 12:45:03;;;;;;;1.92;1.55;;;19.10;51.60;;;;;;4980064;28;20430;-62
2023/03/23 12:47:36;;;;;;;3.75;1.40;;;19.10;51.50;;;;;;4983340;28;20676;-62
2023/03/23 12:50:18;;;;;;;3.20;1.42;;;19.10;51.70;;;;;;4981748;28;20514;-61
2023/03/23 12:53:09;;;;;;;2.45;1.10;;;19.10;51.70;;;;;;4978490;28;20317;-62
2023/03/23 12:56:08;;;;;;;2.83;1.38;;;19.10;51.50;;;;;;4982850;28;20070;-61
2023/03/23 12:58:40;;;;;;;2.33;1.30;;;19.10;51.10;;;;;;4981545;28;20034;-63
2023/03/23 13:01:21;;;;;;;2.35;1.40;;;19.20;51.60;;;;;;4978983;28;20787;-62
2023/03/23 13:04:02;;;;;;;3.25;1.55;;;19.20;51.50;;;;;;4982674;28;20072;-62